createdAt,value
2019-01-27T00:02:06.257Z,100.00
2019-01-27T00:04:38.195Z,100.00
2019-01-27T00:07:09.362Z,100.00
2019-01-27T00:09:55.570Z,100.00
2019-01-27T00:12:31.734Z,100.00
2019-01-27T00:15:04.874Z,100.00
2019-01-27T00:17:36.963Z,100.00
2019-01-27T00:20:09.862Z,100.00
2019-01-27T00:22:40.719Z,100.00
2019-01-27T00:25:11.535Z,100.00
2019-01-27T00:27:43.203Z,100.00
2019-01-27T00:30:21.359Z,100.00
2019-01-27T00:32:52.363Z,100.00
2019-01-27T00:35:24.727Z,100.00
2019-01-27T00:37:55.877Z,100.00
2019-01-27T00:40:26.725Z,100.00
2019-01-27T00:42:57.624Z,100.00
2019-01-27T00:45:31.858Z,100.00
2019-01-27T00:48:04.515Z,100.00
2019-01-27T00:50:36.220Z,100.00
2019-01-27T00:53:08.629Z,100.00
2019-01-27T00:55:39.854Z,100.00
2019-01-27T00:58:13.164Z,100.00
2019-01-27T01:00:47.078Z,100.00
2019-01-27T01:03:18.408Z,100.00
2019-01-27T01:05:50.265Z,100.00
2019-01-27T01:08:21.930Z,100.00
2019-01-27T01:10:52.761Z,100.00
2019-01-27T01:13:23.623Z,100.00
2019-01-27T01:15:54.711Z,100.00
2019-01-27T01:18:28.618Z,100.00
2019-01-27T01:21:00.962Z,100.00
2019-01-27T01:23:32.473Z,100.00
2019-01-27T01:26:08.085Z,100.00
2019-01-27T01:28:39.250Z,100.00
2019-01-27T01:31:11.803Z,100.00
2019-01-27T01:33:43.893Z,100.00
2019-01-27T01:36:15.576Z,100.00
2019-01-27T01:38:46.862Z,100.00
2019-01-27T01:41:20.169Z,100.00
2019-01-27T01:43:51.249Z,100.00
2019-01-27T01:46:24.031Z,100.00
2019-01-27T01:48:55.005Z,100.00
2019-01-27T01:51:26.190Z,100.00
2019-01-27T01:53:58.664Z,100.00
2019-01-27T01:56:29.583Z,100.00
2019-01-27T01:59:01.419Z,100.00
2019-01-27T02:01:32.968Z,100.00
2019-01-27T02:04:07.455Z,100.00
2019-01-27T02:06:38.462Z,100.00
2019-01-27T02:09:11.548Z,100.00
2019-01-27T02:11:42.725Z,100.00
2019-01-27T02:14:16.487Z,100.00
2019-01-27T02:16:47.651Z,100.00
2019-01-27T02:19:18.650Z,100.00
2019-01-27T02:21:49.945Z,100.00
2019-01-27T02:24:21.555Z,100.00
2019-01-27T02:26:53.047Z,100.00
2019-01-27T02:29:23.897Z,100.00
2019-01-27T02:31:55.736Z,100.00
2019-01-27T02:34:26.556Z,100.00
2019-01-27T02:36:57.399Z,100.00
2019-01-27T02:39:28.193Z,100.00
2019-01-27T02:41:59.508Z,100.00
2019-01-27T02:44:30.842Z,100.00
2019-01-27T02:47:06.250Z,100.00
2019-01-27T02:49:39.212Z,100.00
2019-01-27T02:52:12.059Z,100.00
2019-01-27T02:54:43.452Z,100.00
2019-01-27T02:57:16.368Z,100.00
2019-01-27T02:59:50.533Z,100.00
2019-01-27T03:02:21.758Z,100.00
2019-01-27T03:04:54.546Z,100.00
2019-01-27T03:07:36.810Z,100.00
2019-01-27T03:10:56.540Z,100.00
2019-01-27T03:13:27.334Z,100.00
2019-01-27T03:16:02.381Z,100.00
2019-01-27T03:18:33.568Z,100.00
2019-01-27T03:21:10.104Z,100.00
2019-01-27T03:23:40.891Z,100.00
2019-01-27T03:26:12.725Z,100.00
2019-01-27T03:28:43.882Z,100.00
2019-01-27T03:31:14.888Z,100.00
2019-01-27T03:33:47.746Z,100.00
2019-01-27T03:36:18.915Z,100.00
2019-01-27T03:38:49.901Z,100.00
2019-01-27T03:41:21.367Z,100.00
2019-01-27T03:43:52.274Z,100.00
2019-01-27T03:46:23.102Z,100.00
2019-01-27T03:48:59.855Z,100.00
2019-01-27T03:51:37.585Z,100.00
2019-01-27T03:54:09.011Z,100.00
2019-01-27T03:56:39.884Z,100.00
2019-01-27T03:59:14.275Z,100.00
2019-01-27T04:01:45.123Z,100.00
2019-01-27T04:04:21.512Z,100.00
2019-01-27T04:07:24.387Z,100.00
2019-01-27T04:09:57.455Z,100.00
2019-01-27T04:12:32.850Z,100.00
2019-01-27T04:15:03.940Z,100.00
2019-01-27T04:17:37.512Z,100.00
2019-01-27T04:20:11.750Z,100.00
2019-01-27T04:22:42.629Z,100.00
2019-01-27T04:25:14.399Z,100.00
2019-01-27T04:27:46.809Z,100.00
2019-01-27T04:30:27.353Z,100.00
2019-01-27T04:32:59.170Z,100.00
2019-01-27T04:35:30.437Z,100.00
2019-01-27T04:38:02.203Z,100.00
2019-01-27T04:40:33.505Z,100.00
2019-01-27T04:43:06.517Z,100.00
2019-01-27T04:45:38.639Z,100.00
2019-01-27T04:48:09.904Z,100.00
2019-01-27T04:50:40.648Z,100.00
2019-01-27T04:53:11.460Z,100.00
2019-01-27T04:55:42.489Z,100.00
2019-01-27T04:58:14.870Z,100.00
2019-01-27T05:00:47.873Z,100.00
2019-01-27T05:03:33.192Z,100.00
2019-01-27T05:06:08.887Z,100.00
2019-01-27T05:08:39.735Z,100.00
2019-01-27T05:11:14.831Z,100.00
2019-01-27T05:13:45.921Z,100.00
2019-01-27T05:16:16.924Z,100.00
2019-01-27T05:18:50.433Z,100.00
2019-01-27T05:21:22.574Z,100.00
2019-01-27T05:23:53.407Z,100.00
2019-01-27T05:26:24.285Z,100.00
2019-01-27T05:28:57.309Z,100.00
2019-01-27T05:31:28.145Z,100.00
2019-01-27T05:34:01.436Z,100.00
2019-01-27T05:36:32.373Z,100.00
2019-01-27T05:39:05.667Z,100.00
2019-01-27T05:41:37.306Z,100.00
2019-01-27T05:44:08.141Z,100.00
2019-01-27T05:46:39.039Z,100.00
2019-01-27T05:49:09.788Z,100.00
2019-01-27T05:51:41.910Z,100.00
2019-01-27T05:54:14.332Z,100.00
2019-01-27T05:56:45.422Z,100.00
2019-01-27T05:59:16.255Z,100.00
2019-01-27T06:01:47.025Z,100.00
2019-01-27T06:04:24.372Z,100.00
2019-01-27T06:06:55.197Z,100.00
2019-01-27T06:09:25.991Z,100.00
2019-01-27T06:11:58.095Z,100.00
2019-01-27T06:14:28.919Z,100.00
2019-01-27T06:16:59.766Z,100.00
2019-01-27T06:19:31.519Z,100.00
2019-01-27T06:22:03.942Z,100.00
2019-01-27T06:24:36.485Z,100.00
2019-01-27T06:27:07.312Z,100.00
2019-01-27T06:29:38.053Z,100.00
2019-01-27T06:32:10.793Z,100.00
2019-01-27T06:34:41.572Z,100.00
2019-01-27T06:37:13.112Z,100.00
2019-01-27T06:39:43.927Z,100.00
2019-01-27T06:42:14.822Z,100.00
2019-01-27T06:44:46.373Z,100.00
2019-01-27T06:47:18.042Z,100.00
2019-01-27T06:49:48.964Z,100.00
2019-01-27T06:52:19.686Z,100.00
2019-01-27T06:54:50.724Z,100.00
2019-01-27T06:57:21.659Z,100.00
2019-01-27T06:59:59.893Z,100.00
2019-01-27T07:02:45.432Z,100.00
2019-01-27T07:05:22.181Z,100.00
2019-01-27T07:08:04.068Z,100.00
2019-01-27T07:10:46.498Z,100.00
2019-01-27T07:13:29.325Z,100.00
2019-01-27T07:16:27.139Z,100.00
2019-01-27T07:19:20.299Z,100.00
2019-01-27T07:22:11.870Z,100.00
2019-01-27T07:24:50.492Z,100.00
2019-01-27T07:27:38.524Z,100.00
2019-01-27T07:30:30.394Z,100.00
2019-01-27T07:33:26.418Z,100.00
2019-01-27T07:36:16.473Z,100.00
2019-01-27T07:39:15.376Z,100.00
2019-01-27T07:42:16.984Z,100.00
2019-01-27T07:45:09.598Z,100.00
2019-01-27T07:47:54.425Z,100.00
2019-01-27T07:51:01.227Z,100.00
2019-01-27T07:53:51.423Z,100.00
2019-01-27T07:56:44.174Z,100.00
2019-01-27T07:59:24.303Z,100.00
2019-01-27T08:02:25.192Z,100.00
2019-01-27T08:05:31.049Z,100.00
2019-01-27T08:08:23.532Z,100.00
2019-01-27T08:11:10.359Z,100.00
2019-01-27T08:13:58.450Z,100.00
2019-01-27T08:17:03.630Z,100.00
2019-01-27T08:19:51.428Z,100.00
2019-01-27T08:22:55.608Z,100.00
2019-01-27T08:25:36.007Z,100.00
2019-01-27T08:28:34.503Z,100.00
2019-01-27T08:31:32.643Z,100.00
2019-01-27T08:34:25.794Z,100.00
2019-01-27T08:37:25.561Z,100.00
2019-01-27T08:40:19.519Z,100.00
2019-01-27T08:43:01.600Z,100.00
2019-01-27T08:45:48.866Z,100.00
2019-01-27T08:48:24.050Z,100.00
2019-01-27T08:50:54.852Z,100.00
2019-01-27T08:53:28.876Z,100.00
2019-01-27T08:56:00.059Z,100.00
2019-01-27T08:58:31.018Z,100.00
2019-01-27T09:01:10.588Z,100.00
2019-01-27T09:03:52.800Z,100.00
2019-01-27T09:06:43.401Z,100.00
2019-01-27T09:09:26.960Z,100.00
2019-01-27T09:12:15.175Z,100.00
2019-01-27T09:15:06.967Z,100.00
2019-01-27T09:17:58.141Z,100.00
2019-01-27T09:20:47.614Z,100.00
2019-01-27T09:23:26.554Z,100.00
2019-01-27T09:26:16.415Z,100.00
2019-01-27T09:28:59.154Z,100.00
2019-01-27T09:31:39.464Z,100.00
2019-01-27T09:34:24.771Z,100.00
2019-01-27T09:37:23.531Z,100.00
2019-01-27T09:40:14.790Z,100.00
2019-01-27T09:43:03.738Z,100.00
2019-01-27T09:46:05.134Z,100.00
2019-01-27T09:48:47.929Z,100.00
2019-01-27T09:51:36.354Z,100.00
2019-01-27T09:54:29.930Z,100.00
2019-01-27T09:57:20.244Z,100.00
2019-01-27T10:00:17.558Z,100.00
2019-01-27T10:03:19.553Z,100.00
2019-01-27T10:05:59.497Z,100.00
2019-01-27T10:08:46.312Z,100.00
2019-01-27T10:11:35.039Z,100.00
2019-01-27T10:14:21.415Z,100.00
2019-01-27T10:17:25.765Z,100.00
2019-01-27T10:20:27.500Z,100.00
2019-01-27T10:23:23.163Z,100.00
2019-01-27T10:26:22.363Z,100.00
2019-01-27T10:29:17.341Z,100.00
2019-01-27T10:32:10.685Z,100.00
2019-01-27T10:34:51.960Z,100.00
2019-01-27T10:37:47.700Z,100.00
2019-01-27T10:40:27.621Z,100.00
2019-01-27T10:43:34.582Z,100.00
2019-01-27T10:46:28.317Z,100.00
2019-01-27T10:49:15.759Z,100.00
2019-01-27T10:52:08.311Z,100.00
2019-01-27T10:54:56.182Z,100.00
2019-01-27T10:57:49.567Z,100.00
2019-01-27T11:00:38.020Z,100.00
2019-01-27T11:03:41.477Z,100.00
2019-01-27T11:06:33.480Z,100.00
2019-01-27T11:09:30.003Z,100.00
2019-01-27T11:12:27.533Z,100.00
2019-01-27T11:15:25.412Z,100.00
2019-01-27T11:18:18.317Z,100.00
2019-01-27T11:21:12.882Z,99.96
2019-01-27T11:24:01.530Z,99.66
2019-01-27T11:26:52.443Z,99.64
2019-01-27T11:30:08.471Z,99.68
2019-01-27T11:33:04.613Z,100.00
2019-01-27T11:36:08.546Z,100.00
2019-01-27T11:38:59.852Z,100.00
2019-01-27T11:41:57.549Z,100.00
2019-01-27T11:44:48.915Z,100.00
2019-01-27T11:48:00.403Z,100.00
2019-01-27T11:50:57.842Z,100.00
2019-01-27T11:53:44.037Z,100.00
2019-01-27T11:56:33.226Z,100.00
2019-01-27T11:59:05.814Z,100.00
2019-01-27T12:01:37.166Z,100.00
2019-01-27T12:04:16.406Z,100.00
2019-01-27T12:06:49.474Z,100.00
2019-01-27T12:09:20.291Z,100.00
2019-01-27T12:12:11.549Z,100.00
2019-01-27T12:14:49.499Z,100.00
2019-01-27T12:17:23.665Z,100.00
2019-01-27T12:20:44.308Z,100.00
2019-01-27T12:23:28.759Z,100.00
2019-01-27T12:26:05.016Z,100.00
2019-01-27T12:29:00.401Z,100.00
2019-01-27T12:31:41.101Z,100.00
2019-01-27T12:34:20.913Z,100.00
2019-01-27T12:36:54.602Z,100.00
2019-01-27T12:39:35.481Z,100.00
2019-01-27T12:42:10.600Z,100.00
2019-01-27T12:44:41.863Z,100.00
2019-01-27T12:47:13.861Z,99.23
2019-01-27T12:49:48.356Z,100.00
2019-01-27T12:52:24.088Z,100.00
2019-01-27T12:54:58.383Z,100.00
2019-01-27T12:57:29.683Z,100.00
2019-01-27T13:00:13.208Z,100.00
2019-01-27T13:02:49.771Z,100.00
2019-01-27T13:05:24.450Z,99.58
2019-01-27T13:07:55.763Z,98.94
2019-01-27T13:10:26.881Z,99.55
2019-01-27T13:13:13.715Z,99.09
2019-01-27T13:15:48.093Z,99.40
2019-01-27T13:18:23.955Z,99.55
2019-01-27T13:20:55.163Z,99.66
2019-01-27T13:23:25.905Z,99.57
2019-01-27T13:26:03.937Z,99.55
2019-01-27T13:28:36.358Z,99.33
2019-01-27T13:31:10.411Z,99.35
2019-01-27T13:33:42.794Z,98.74
2019-01-27T13:36:16.720Z,98.34
2019-01-27T13:38:51.250Z,98.29
2019-01-27T13:41:23.796Z,98.17
2019-01-27T13:43:54.742Z,98.18
2019-01-27T13:46:29.875Z,99.33
2019-01-27T13:49:13.315Z,99.97
2019-01-27T13:51:49.975Z,100.00
2019-01-27T13:54:25.786Z,100.00
2019-01-27T13:57:02.038Z,100.00
2019-01-27T13:59:41.975Z,100.00
2019-01-27T14:02:21.757Z,100.00
2019-01-27T14:04:55.952Z,100.00
2019-01-27T14:07:30.555Z,100.00
2019-01-27T14:10:03.486Z,100.00
2019-01-27T14:12:56.091Z,99.86
2019-01-27T14:15:29.520Z,99.97
2019-01-27T14:18:04.708Z,100.00
2019-01-27T14:20:43.157Z,100.00
2019-01-27T14:23:18.878Z,100.00
2019-01-27T14:25:49.716Z,100.00
2019-01-27T14:28:23.732Z,100.00
2019-01-27T14:31:01.231Z,100.00
2019-01-27T14:33:50.729Z,100.00
2019-01-27T14:36:13.803Z,100.00
2019-01-27T14:38:46.510Z,100.00
2019-01-27T14:41:22.137Z,100.00
2019-01-27T14:43:53.377Z,100.00
2019-01-27T14:46:25.230Z,100.00
2019-01-27T14:48:58.009Z,100.00
2019-01-27T14:51:29.306Z,100.00
2019-01-27T14:54:07.335Z,100.00
2019-01-27T14:56:38.210Z,100.00
2019-01-27T14:59:15.437Z,100.00
2019-01-27T15:01:46.602Z,100.00
2019-01-27T15:04:20.345Z,100.00
2019-01-27T15:06:54.824Z,100.00
2019-01-27T15:09:35.380Z,100.00
2019-01-27T15:12:07.483Z,100.00
2019-01-27T15:14:40.933Z,100.00
2019-01-27T15:17:14.440Z,100.00
2019-01-27T15:19:45.742Z,100.00
2019-01-27T15:22:16.885Z,100.00
2019-01-27T15:24:47.794Z,100.00
2019-01-27T15:27:20.822Z,100.00
2019-01-27T15:29:52.853Z,100.00
2019-01-27T15:32:25.741Z,100.00
2019-01-27T15:35:03.291Z,100.00
2019-01-27T15:37:36.491Z,100.00
2019-01-27T15:40:14.752Z,100.00
2019-01-27T15:42:49.160Z,100.00
2019-01-27T15:45:25.286Z,100.00
2019-01-27T15:48:01.169Z,100.00
2019-01-27T15:50:33.653Z,100.00
2019-01-27T15:53:12.358Z,100.00
2019-01-27T15:55:43.901Z,100.00
2019-01-27T15:58:18.394Z,100.00
2019-01-27T16:00:54.567Z,100.00
2019-01-27T16:03:37.595Z,100.00
2019-01-27T16:06:10.236Z,100.00
2019-01-27T16:08:43.458Z,100.00
2019-01-27T16:11:35.994Z,100.00
2019-01-27T16:14:07.919Z,100.00
2019-01-27T16:16:39.281Z,100.00
2019-01-27T16:19:15.242Z,100.00
2019-01-27T16:21:46.656Z,100.00
2019-01-27T16:24:31.605Z,100.00
2019-01-27T16:27:03.114Z,100.00
2019-01-27T16:29:56.413Z,100.00
2019-01-27T16:32:34.159Z,100.00
2019-01-27T16:35:13.585Z,100.00
2019-01-27T16:37:45.548Z,100.00
2019-01-27T16:40:18.920Z,100.00
2019-01-27T16:42:53.581Z,100.00
2019-01-27T16:45:28.117Z,100.00
2019-01-27T16:48:02.101Z,100.00
2019-01-27T16:50:33.794Z,100.00
2019-01-27T16:53:08.623Z,100.00
2019-01-27T16:55:48.223Z,100.00
2019-01-27T16:58:36.544Z,100.00
2019-01-27T17:01:10.621Z,100.00
2019-01-27T17:03:41.794Z,100.00
2019-01-27T17:06:22.675Z,100.00
2019-01-27T17:08:53.897Z,100.00
2019-01-27T17:11:27.046Z,100.00
2019-01-27T17:13:57.970Z,100.00
2019-01-27T17:16:30.664Z,100.00
2019-01-27T17:19:03.930Z,100.00
2019-01-27T17:21:37.719Z,100.00
2019-01-27T17:24:21.242Z,100.00
2019-01-27T17:26:55.767Z,100.00
2019-01-27T17:29:48.774Z,100.00
2019-01-27T17:32:22.510Z,100.00
2019-01-27T17:34:58.112Z,100.00
2019-01-27T17:37:38.307Z,100.00
2019-01-27T17:40:14.558Z,100.00
2019-01-27T17:42:46.124Z,100.00
2019-01-27T17:45:20.596Z,100.00
2019-01-27T17:47:54.734Z,100.00
2019-01-27T17:50:27.181Z,100.00
2019-01-27T17:52:58.453Z,100.00
2019-01-27T17:55:40.220Z,100.00
2019-01-27T17:58:33.583Z,100.00
2019-01-27T18:01:27.628Z,100.00
2019-01-27T18:04:19.594Z,100.00
2019-01-27T18:07:15.009Z,100.00
2019-01-27T18:10:01.318Z,100.00
2019-01-27T18:12:42.466Z,100.00
2019-01-27T18:15:15.084Z,100.00
2019-01-27T18:17:46.053Z,100.00
2019-01-27T18:20:20.459Z,100.00
2019-01-27T18:23:03.442Z,100.00
2019-01-27T18:25:43.477Z,100.00
2019-01-27T18:28:20.029Z,100.00
2019-01-27T18:30:59.837Z,100.00
2019-01-27T18:33:51.304Z,100.00
2019-01-27T18:36:22.270Z,100.00
2019-01-27T18:38:54.886Z,100.00
2019-01-27T18:41:33.758Z,100.00
2019-01-27T18:44:09.326Z,100.00
2019-01-27T18:46:45.051Z,100.00
2019-01-27T18:49:47.487Z,100.00
2019-01-27T18:52:31.174Z,100.00
2019-01-27T18:55:33.134Z,100.00
2019-01-27T18:58:25.742Z,100.00
2019-01-27T19:01:12.623Z,100.00
2019-01-27T19:03:53.899Z,100.00
2019-01-27T19:07:14.945Z,100.00
2019-01-27T19:10:17.287Z,100.00
2019-01-27T19:13:07.271Z,100.00
2019-01-27T19:16:06.785Z,100.00
2019-01-27T19:19:21.586Z,100.00
2019-01-27T19:22:18.539Z,100.00
2019-01-27T19:25:06.076Z,100.00
2019-01-27T19:27:54.518Z,100.00
2019-01-27T19:30:47.194Z,100.00
2019-01-27T19:33:42.412Z,100.00
2019-01-27T19:36:34.554Z,100.00
2019-01-27T19:39:51.630Z,100.00
2019-01-27T19:42:44.160Z,100.00
2019-01-27T19:45:43.172Z,100.00
2019-01-27T19:48:42.494Z,100.00
2019-01-27T19:51:38.658Z,100.00
2019-01-27T19:54:32.138Z,100.00
2019-01-27T19:57:26.648Z,100.00
2019-01-27T20:00:18.522Z,100.00
2019-01-27T20:03:15.314Z,100.00
2019-01-27T20:06:07.814Z,100.00
2019-01-27T20:09:07.428Z,100.00
2019-01-27T20:12:02.391Z,100.00
2019-01-27T20:14:52.202Z,100.00
2019-01-27T20:17:53.760Z,100.00
2019-01-27T20:20:53.074Z,100.00
2019-01-27T20:23:55.737Z,100.00
2019-01-27T20:26:50.788Z,100.00
2019-01-27T20:29:50.803Z,100.00
2019-01-27T20:32:42.799Z,100.00
2019-01-27T20:35:31.615Z,100.00
2019-01-27T20:38:43.688Z,100.00
2019-01-27T20:41:25.099Z,100.00
2019-01-27T20:44:24.773Z,100.00
2019-01-27T20:47:26.626Z,100.00
2019-01-27T20:50:22.587Z,100.00
2019-01-27T20:53:04.370Z,100.00
2019-01-27T20:55:55.005Z,100.00
2019-01-27T20:58:37.415Z,100.00
2019-01-27T21:01:25.326Z,100.00
2019-01-27T21:04:20.901Z,100.00
2019-01-27T21:07:03.695Z,100.00
2019-01-27T21:09:57.506Z,100.00
2019-01-27T21:13:05.786Z,100.00
2019-01-27T21:16:00.055Z,100.00
2019-01-27T21:18:53.294Z,100.00
2019-01-27T21:21:25.683Z,100.00
2019-01-27T21:24:04.471Z,100.00
2019-01-27T21:26:35.407Z,100.00
2019-01-27T21:29:10.016Z,100.00
2019-01-27T21:31:43.796Z,100.00
2019-01-27T21:34:14.667Z,100.00
2019-01-27T21:36:53.820Z,100.00
2019-01-27T21:39:28.079Z,100.00
2019-01-27T21:41:58.941Z,100.00
2019-01-27T21:44:32.455Z,100.00
2019-01-27T21:47:04.912Z,100.00
2019-01-27T21:49:41.423Z,100.00
2019-01-27T21:52:18.172Z,100.00
2019-01-27T21:54:49.226Z,100.00
2019-01-27T21:57:26.402Z,100.00
2019-01-27T21:59:58.965Z,100.00
2019-01-27T22:02:31.337Z,100.00
2019-01-27T22:05:08.378Z,100.00
2019-01-27T22:10:44.386Z,100.00
2019-01-27T22:13:15.549Z,100.00
2019-01-27T22:15:46.793Z,100.00
2019-01-27T22:18:20.582Z,100.00
2019-01-27T22:20:57.455Z,100.00
2019-01-27T22:23:30.120Z,100.00
2019-01-27T22:26:06.584Z,100.00
2019-01-27T22:28:37.540Z,100.00
2019-01-27T22:31:08.697Z,100.00
2019-01-27T22:33:39.523Z,100.00
2019-01-27T22:36:14.716Z,100.00
2019-01-27T22:38:46.856Z,100.00
2019-01-27T22:41:23.548Z,100.00
2019-01-27T22:43:54.353Z,100.00
2019-01-27T22:46:29.159Z,100.00
2019-01-27T22:48:59.931Z,100.00
2019-01-27T22:51:36.534Z,100.00
2019-01-27T22:54:07.530Z,100.00
2019-01-27T22:56:38.525Z,100.00
2019-01-27T22:59:09.650Z,100.00
2019-01-27T23:01:43.398Z,100.00
2019-01-27T23:04:18.427Z,100.00
2019-01-27T23:06:49.821Z,100.00
2019-01-27T23:09:22.136Z,100.00
2019-01-27T23:11:55.029Z,100.00
2019-01-27T23:14:29.209Z,100.00
2019-01-27T23:17:00.055Z,100.00
2019-01-27T23:19:31.427Z,100.00
2019-01-27T23:22:02.361Z,100.00
2019-01-27T23:24:33.198Z,100.00
2019-01-27T23:27:04.657Z,100.00
2019-01-27T23:29:36.534Z,100.00
2019-01-27T23:32:07.372Z,100.00
2019-01-27T23:34:38.423Z,100.00
2019-01-27T23:37:09.450Z,100.00
2019-01-27T23:39:40.248Z,100.00
2019-01-27T23:42:11.140Z,100.00
2019-01-27T23:44:42.226Z,100.00
2019-01-27T23:47:13.548Z,100.00
2019-01-27T23:49:44.328Z,100.00
2019-01-27T23:52:15.381Z,100.00
2019-01-27T23:54:49.619Z,100.00
2019-01-27T23:57:20.427Z,100.00
2019-01-27T23:59:51.474Z,100.00
